Terminal Aerodrome Forecast
Issued by NWS

Home | Current Version | Previous Version | Graphics & Text | Print | Product List | Glossary On
Versions: 1 2 3 4 5 6 7 8 9 10 11 12 13 14 15 16
599
FTUS43 KMPX 100529
TAFAXN
TAF
KAXN 100529Z 1006/1106 26009KT P6SM FEW200
     FM100700 30011G16KT P6SM BKN025
     FM101500 32012KT P6SM SCT025 BKN150
     FM101900 31012KT P6SM SCT015 BKN020
     FM110300 23007KT 3SM -SN OVC015=

USA.gov is the U.S. government's official web portal to all federal, state and local government web resources and services.